sensor_id;sensor_type;location;lat;lon;timestamp;pressure;altitude;pressure_sealevel;temperature
15544;BMP180;7873;52.230;12.856;2022-08-19T00:00:35;100282.38;;;26.45
15544;BMP180;7873;52.230;12.856;2022-08-19T00:03:02;100282.03;;;26.48
15544;BMP180;7873;52.230;12.856;2022-08-19T00:05:29;100268.06;;;26.45
15544;BMP180;7873;52.230;12.856;2022-08-19T00:07:57;100270.38;;;26.48
15544;BMP180;7873;52.230;12.856;2022-08-19T00:10:25;100266.44;;;26.50
15544;BMP180;7873;52.230;12.856;2022-08-19T00:12:52;100265.41;;;26.51
15544;BMP180;7873;52.230;12.856;2022-08-19T00:15:20;100264.38;;;26.52
15544;BMP180;7873;52.230;12.856;2022-08-19T00:17:48;100258.53;;;26.49
15544;BMP180;7873;52.230;12.856;2022-08-19T00:20:17;100256.47;;;26.51
15544;BMP180;7873;52.230;12.856;2022-08-19T00:22:44;100274.13;;;26.53
15544;BMP180;7873;52.230;12.856;2022-08-19T00:25:11;100279.72;;;26.52
15544;BMP180;7873;52.230;12.856;2022-08-19T00:27:39;100300.09;;;26.54
15544;BMP180;7873;52.230;12.856;2022-08-19T00:30:07;100300.09;;;26.54
15544;BMP180;7873;52.230;12.856;2022-08-19T00:32:35;100302.78;;;26.54
15544;BMP180;7873;52.230;12.856;2022-08-19T00:35:02;100291.13;;;26.54
15544;BMP180;7873;52.230;12.856;2022-08-19T00:37:29;100281.81;;;26.50
15544;BMP180;7873;52.230;12.856;2022-08-19T00:39:56;100278.69;;;26.53
15544;BMP180;7873;52.230;12.856;2022-08-19T00:42:23;100277.25;;;26.50
15544;BMP180;7873;52.230;12.856;2022-08-19T00:44:55;100279.94;;;26.50
15544;BMP180;7873;52.230;12.856;2022-08-19T00:47:21;100276.59;;;26.55
15544;BMP180;7873;52.230;12.856;2022-08-19T00:49:50;100284.06;;;26.53
15544;BMP180;7873;52.230;12.856;2022-08-19T00:52:21;100287.63;;;26.53
15544;BMP180;7873;52.230;12.856;2022-08-19T00:54:50;100287.41;;;26.55
15544;BMP180;7873;52.230;12.856;2022-08-19T00:57:20;100295.72;;;26.53
15544;BMP180;7873;52.230;12.856;2022-08-19T00:59:52;100305.91;;;26.58
15544;BMP180;7873;52.230;12.856;2022-08-19T01:02:21;100298.63;;;26.58
15544;BMP180;7873;52.230;12.856;2022-08-19T01:04:48;100298.41;;;26.60
15544;BMP180;7873;52.230;12.856;2022-08-19T01:07:15;100289.91;;;26.63
15544;BMP180;7873;52.230;12.856;2022-08-19T01:09:42;100284.06;;;26.59
15544;BMP180;7873;52.230;12.856;2022-08-19T01:12:09;100273.91;;;26.55
15544;BMP180;7873;52.230;12.856;2022-08-19T01:14:36;100275.34;;;26.57
15544;BMP180;7873;52.230;12.856;2022-08-19T01:17:23;100290.72;;;26.57
15544;BMP180;7873;52.230;12.856;2022-08-19T01:19:51;100294.06;;;26.52
15544;BMP180;7873;52.230;12.856;2022-08-19T01:22:26;100292.78;;;26.55
15544;BMP180;7873;52.230;12.856;2022-08-19T01:24:53;100282.84;;;26.49
15544;BMP180;7873;52.230;12.856;2022-08-19T01:27:20;100264.56;;;26.51
15544;BMP180;7873;52.230;12.856;2022-08-19T01:29:46;100262.69;;;26.51
15544;BMP180;7873;52.230;12.856;2022-08-19T01:32:15;100251.69;;;26.53
15544;BMP180;7873;52.230;12.856;2022-08-19T01:34:42;100228.66;;;26.50
15544;BMP180;7873;52.230;12.856;2022-08-19T01:37:13;100203.88;;;26.47
15544;BMP180;7873;52.230;12.856;2022-08-19T01:39:42;100194.78;;;26.48
15544;BMP180;7873;52.230;12.856;2022-08-19T01:42:09;100193.53;;;26.44
15544;BMP180;7873;52.230;12.856;2022-08-19T01:44:38;100197.25;;;26.43
15544;BMP180;7873;52.230;12.856;2022-08-19T01:47:06;100215.13;;;26.44
15544;BMP180;7873;52.230;12.856;2022-08-19T01:49:33;100236.31;;;26.40
15544;BMP180;7873;52.230;12.856;2022-08-19T01:52:00;100258.50;;;26.42
15544;BMP180;7873;52.230;12.856;2022-08-19T01:54:27;100273.47;;;26.45
15544;BMP180;7873;52.230;12.856;2022-08-19T01:57:01;100277.66;;;26.47
15544;BMP180;7873;52.230;12.856;2022-08-19T01:59:28;100274.53;;;26.50
15544;BMP180;7873;52.230;12.856;2022-08-19T02:01:56;100262.28;;;26.48
15544;BMP180;7873;52.230;12.856;2022-08-19T02:04:23;100260.44;;;26.48
15544;BMP180;7873;52.230;12.856;2022-08-19T02:06:50;100266.66;;;26.49
15544;BMP180;7873;52.230;12.856;2022-08-19T02:09:17;100268.09;;;26.51
15544;BMP180;7873;52.230;12.856;2022-08-19T02:11:44;100274.53;;;26.50
15544;BMP180;7873;52.230;12.856;2022-08-19T02:14:12;100278.25;;;26.43
15544;BMP180;7873;52.230;12.856;2022-08-19T02:16:39;100286.34;;;26.36
15544;BMP180;7873;52.230;12.856;2022-08-19T02:19:06;100282.84;;;26.36
15544;BMP180;7873;52.230;12.856;2022-08-19T02:21:32;100272.06;;;26.36
15544;BMP180;7873;52.230;12.856;2022-08-19T02:23:59;100271.19;;;26.42
15544;BMP180;7873;52.230;12.856;2022-08-19T02:26:27;100276.19;;;26.45
15544;BMP180;7873;52.230;12.856;2022-08-19T02:28:54;100274.97;;;26.47
15544;BMP180;7873;52.230;12.856;2022-08-19T02:31:24;100277.00;;;26.45
15544;BMP180;7873;52.230;12.856;2022-08-19T02:33:51;100280.16;;;26.49
15544;BMP180;7873;52.230;12.856;2022-08-19T02:36:18;100281.19;;;26.54
15544;BMP180;7873;52.230;12.856;2022-08-19T02:38:47;100278.06;;;26.51
15544;BMP180;7873;52.230;12.856;2022-08-19T02:41:15;100250.84;;;26.46
15544;BMP180;7873;52.230;12.856;2022-08-19T02:43:42;100238.81;;;26.42
15544;BMP180;7873;52.230;12.856;2022-08-19T02:46:13;100221.13;;;26.39
15544;BMP180;7873;52.230;12.856;2022-08-19T02:48:42;100214.31;;;26.37
15544;BMP180;7873;52.230;12.856;2022-08-19T02:51:15;100197.09;;;26.31
15544;BMP180;7873;52.230;12.856;2022-08-19T02:53:42;100185.25;;;26.32
15544;BMP180;7873;52.230;12.856;2022-08-19T02:56:09;100172.16;;;26.29
15544;BMP180;7873;52.230;12.856;2022-08-19T02:58:36;100178.63;;;26.28
15544;BMP180;7873;52.230;12.856;2022-08-19T03:01:03;100181.31;;;26.28
15544;BMP180;7873;52.230;12.856;2022-08-19T03:03:29;100173.81;;;26.30
15544;BMP180;7873;52.230;12.856;2022-08-19T03:06:12;100168.00;;;26.27
15544;BMP180;7873;52.230;12.856;2022-08-19T03:08:41;100172.78;;;26.25
15544;BMP180;7873;52.230;12.856;2022-08-19T03:11:13;100159.91;;;26.27
15544;BMP180;7873;52.230;12.856;2022-08-19T03:13:39;100155.38;;;26.21
15544;BMP180;7873;52.230;12.856;2022-08-19T03:16:07;100145.63;;;26.20
15544;BMP180;7873;52.230;12.856;2022-08-19T03:18:33;100145.00;;;26.24
15544;BMP180;7873;52.230;12.856;2022-08-19T03:21:00;100144.75;;;26.26
15544;BMP180;7873;52.230;12.856;2022-08-19T03:23:28;100137.72;;;26.25
15544;BMP180;7873;52.230;12.856;2022-08-19T03:25:55;100152.66;;;26.21
15544;BMP180;7873;52.230;12.856;2022-08-19T03:28:21;100140.41;;;26.25
15544;BMP180;7873;52.230;12.856;2022-08-19T03:30:56;100144.38;;;26.22
15544;BMP180;7873;52.230;12.856;2022-08-19T03:33:24;100144.16;;;26.24
15544;BMP180;7873;52.230;12.856;2022-08-19T03:36:05;100141.69;;;26.22
15544;BMP180;7873;52.230;12.856;2022-08-19T03:38:35;100142.31;;;26.18
15544;BMP180;7873;52.230;12.856;2022-08-19T03:41:03;100142.91;;;26.20
15544;BMP180;7873;52.230;12.856;2022-08-19T03:43:32;100142.50;;;26.23
15544;BMP180;7873;52.230;12.856;2022-08-19T03:46:01;100145.00;;;26.24
15544;BMP180;7873;52.230;12.856;2022-08-19T03:48:30;100140.41;;;26.25
15544;BMP180;7873;52.230;12.856;2022-08-19T03:50:57;100142.47;;;26.29
15544;BMP180;7873;52.230;12.856;2022-08-19T03:53:25;100140.81;;;26.35
15544;BMP180;7873;52.230;12.856;2022-08-19T03:55:54;100144.56;;;26.34
15544;BMP180;7873;52.230;12.856;2022-08-19T03:58:21;100128.34;;;26.34
15544;BMP180;7873;52.230;12.856;2022-08-19T04:00:48;100130.00;;;26.35
15544;BMP180;7873;52.230;12.856;2022-08-19T04:03:15;100127.50;;;26.33
15544;BMP180;7873;52.230;12.856;2022-08-19T04:05:44;100138.50;;;26.32
15544;BMP180;7873;52.230;12.856;2022-08-19T04:08:12;100138.31;;;26.27
15544;BMP180;7873;52.230;12.856;2022-08-19T04:10:39;100131.50;;;26.24
15544;BMP180;7873;52.230;12.856;2022-08-19T04:13:08;100125.06;;;26.19
15544;BMP180;7873;52.230;12.856;2022-08-19T04:15:39;100131.72;;;26.16
15544;BMP180;7873;52.230;12.856;2022-08-19T04:18:07;100126.31;;;26.16
15544;BMP180;7873;52.230;12.856;2022-08-19T04:20:39;100116.56;;;26.09
15544;BMP180;7873;52.230;12.856;2022-08-19T04:23:05;100121.78;;;26.10
15544;BMP180;7873;52.230;12.856;2022-08-19T04:25:36;100125.50;;;26.09
15544;BMP180;7873;52.230;12.856;2022-08-19T04:28:02;100138.38;;;26.07
15544;BMP180;7873;52.230;12.856;2022-08-19T04:30:30;100144.41;;;26.03
15544;BMP180;7873;52.230;12.856;2022-08-19T04:32:58;100156.00;;;26.10
15544;BMP180;7873;52.230;12.856;2022-08-19T04:35:25;100152.06;;;26.12
15544;BMP180;7873;52.230;12.856;2022-08-19T04:37:52;100161.63;;;26.08
15544;BMP180;7873;52.230;12.856;2022-08-19T04:40:18;100156.66;;;26.12
15544;BMP180;7873;52.230;12.856;2022-08-19T04:43:02;100165.13;;;26.09
15544;BMP180;7873;52.230;12.856;2022-08-19T04:45:30;100180.53;;;26.08
15544;BMP180;7873;52.230;12.856;2022-08-19T04:47:57;100178.25;;;26.12
15544;BMP180;7873;52.230;12.856;2022-08-19T04:50:25;100179.91;;;26.13
15544;BMP180;7873;52.230;12.856;2022-08-19T04:52:51;100179.47;;;26.03
15544;BMP180;7873;52.230;12.856;2022-08-19T04:55:18;100183.63;;;26.05
15544;BMP180;7873;52.230;12.856;2022-08-19T04:57:45;100184.69;;;26.11
15544;BMP180;7873;52.230;12.856;2022-08-19T05:02:40;100200.41;;;26.27
15544;BMP180;7873;52.230;12.856;2022-08-19T05:05:08;100204.94;;;26.33
15544;BMP180;7873;52.230;12.856;2022-08-19T05:07:35;100213.91;;;26.33
15544;BMP180;7873;52.230;12.856;2022-08-19T05:10:02;100211.38;;;26.38
15544;BMP180;7873;52.230;12.856;2022-08-19T05:12:31;100222.00;;;26.40
15544;BMP180;7873;52.230;12.856;2022-08-19T05:14:58;100228.44;;;26.39
15544;BMP180;7873;52.230;12.856;2022-08-19T05:17:26;100231.56;;;26.36
15544;BMP180;7873;52.230;12.856;2022-08-19T05:19:55;100241.31;;;26.24
15544;BMP180;7873;52.230;12.856;2022-08-19T05:22:39;100242.78;;;26.07
15544;BMP180;7873;52.230;12.856;2022-08-19T05:25:08;100238.44;;;25.93
15544;BMP180;7873;52.230;12.856;2022-08-19T05:27:35;100239.66;;;25.90
15544;BMP180;7873;52.230;12.856;2022-08-19T05:30:03;100251.31;;;25.84
15544;BMP180;7873;52.230;12.856;2022-08-19T05:32:30;100250.47;;;25.90
15544;BMP180;7873;52.230;12.856;2022-08-19T05:34:58;100255.44;;;26.00
15544;BMP180;7873;52.230;12.856;2022-08-19T05:37:24;100248.59;;;26.04
15544;BMP180;7873;52.230;12.856;2022-08-19T05:39:53;100250.69;;;26.08
15544;BMP180;7873;52.230;12.856;2022-08-19T05:42:20;100242.34;;;26.10
15544;BMP180;7873;52.230;12.856;2022-08-19T05:44:48;100226.59;;;26.13
15544;BMP180;7873;52.230;12.856;2022-08-19T05:47:15;100217.22;;;26.29
15544;BMP180;7873;52.230;12.856;2022-08-19T05:49:44;100211.19;;;26.40
15544;BMP180;7873;52.230;12.856;2022-08-19T05:52:13;100213.03;;;26.46
15544;BMP180;7873;52.230;12.856;2022-08-19T05:54:42;100196.00;;;26.52
15544;BMP180;7873;52.230;12.856;2022-08-19T05:57:10;100201.59;;;26.57
15544;BMP180;7873;52.230;12.856;2022-08-19T05:59:37;100203.28;;;26.58
15544;BMP180;7873;52.230;12.856;2022-08-19T06:02:05;100205.13;;;26.57
15544;BMP180;7873;52.230;12.856;2022-08-19T06:04:32;100209.69;;;26.57
15544;BMP180;7873;52.230;12.856;2022-08-19T06:06:59;100219.06;;;26.61
15544;BMP180;7873;52.230;12.856;2022-08-19T06:09:29;100223.41;;;26.62
15544;BMP180;7873;52.230;12.856;2022-08-19T06:11:57;100227.78;;;26.63
15544;BMP180;7873;52.230;12.856;2022-08-19T06:14:28;100228.38;;;26.65
15544;BMP180;7873;52.230;12.856;2022-08-19T06:16:55;100222.75;;;26.66
15544;BMP180;7873;52.230;12.856;2022-08-19T06:19:22;100215.50;;;26.67
15544;BMP180;7873;52.230;12.856;2022-08-19T06:21:51;100213.84;;;26.66
15544;BMP180;7873;52.230;12.856;2022-08-19T06:24:20;100215.69;;;26.65
15544;BMP180;7873;52.230;12.856;2022-08-19T06:26:51;100222.16;;;26.64
15544;BMP180;7873;52.230;12.856;2022-08-19T06:29:20;100220.28;;;26.65
15544;BMP180;7873;52.230;12.856;2022-08-19T06:31:49;100222.38;;;26.63
15544;BMP180;7873;52.230;12.856;2022-08-19T06:34:17;100227.78;;;26.63
15544;BMP180;7873;52.230;12.856;2022-08-19T06:36:46;100227.78;;;26.63
15544;BMP180;7873;52.230;12.856;2022-08-19T06:39:15;100226.72;;;26.64
15544;BMP180;7873;52.230;12.856;2022-08-19T06:41:44;100227.78;;;26.63
15544;BMP180;7873;52.230;12.856;2022-08-19T06:44:13;100237.53;;;26.64
15544;BMP180;7873;52.230;12.856;2022-08-19T06:46:40;100238.34;;;26.64
15544;BMP180;7873;52.230;12.856;2022-08-19T06:49:07;100242.72;;;26.65
15544;BMP180;7873;52.230;12.856;2022-08-19T06:51:40;100247.06;;;26.66
15544;BMP180;7873;52.230;12.856;2022-08-19T06:54:07;100250.63;;;26.67
15544;BMP180;7873;52.230;12.856;2022-08-19T06:56:34;100254.34;;;26.66
15544;BMP180;7873;52.230;12.856;2022-08-19T06:59:03;100271.38;;;26.66
15544;BMP180;7873;52.230;12.856;2022-08-19T07:01:34;100280.31;;;26.67
15544;BMP180;7873;52.230;12.856;2022-08-19T07:04:04;100287.38;;;26.68
15544;BMP180;7873;52.230;12.856;2022-08-19T07:06:31;100283.63;;;26.69
15544;BMP180;7873;52.230;12.856;2022-08-19T07:08:57;100278.25;;;26.69
15544;BMP180;7873;52.230;12.856;2022-08-19T07:11:24;100279.91;;;26.70
15544;BMP180;7873;52.230;12.856;2022-08-19T07:13:51;100282.59;;;26.63
15544;BMP180;7873;52.230;12.856;2022-08-19T07:16:19;100281.19;;;26.61
15544;BMP180;7873;52.230;12.856;2022-08-19T07:18:48;100271.81;;;26.63
15544;BMP180;7873;52.230;12.856;2022-08-19T07:21:17;100281.38;;;26.66
15544;BMP180;7873;52.230;12.856;2022-08-19T07:23:44;100282.78;;;26.68
15544;BMP180;7873;52.230;12.856;2022-08-19T07:26:13;100284.47;;;26.69
15544;BMP180;7873;52.230;12.856;2022-08-19T07:28:40;100293.41;;;26.70
15544;BMP180;7873;52.230;12.856;2022-08-19T07:31:10;100300.69;;;26.69
15544;BMP180;7873;52.230;12.856;2022-08-19T07:33:37;100298.00;;;26.63
15544;BMP180;7873;52.230;12.856;2022-08-19T07:36:07;100309.63;;;26.63
15544;BMP180;7873;52.230;12.856;2022-08-19T07:38:37;100308.59;;;26.58
15544;BMP180;7873;52.230;12.856;2022-08-19T07:41:05;100312.34;;;26.50
15544;BMP180;7873;52.230;12.856;2022-08-19T07:43:31;100307.53;;;26.46
15544;BMP180;7873;52.230;12.856;2022-08-19T07:45:58;100313.34;;;26.36
15544;BMP180;7873;52.230;12.856;2022-08-19T07:48:26;100310.88;;;26.02
15544;BMP180;7873;52.230;12.856;2022-08-19T07:50:53;100309.19;;;25.88
15544;BMP180;7873;52.230;12.856;2022-08-19T07:53:22;100308.56;;;25.86
15544;BMP180;7873;52.230;12.856;2022-08-19T07:55:49;100310.25;;;25.94
15544;BMP180;7873;52.230;12.856;2022-08-19T07:58:19;100317.88;;;25.84
15544;BMP180;7873;52.230;12.856;2022-08-19T08:00:48;100320.56;;;25.77
15544;BMP180;7873;52.230;12.856;2022-08-19T08:03:17;100330.09;;;25.67
15544;BMP180;7873;52.230;12.856;2022-08-19T08:05:45;100319.69;;;25.70
15544;BMP180;7873;52.230;12.856;2022-08-19T08:08:31;100316.84;;;25.78
15544;BMP180;7873;52.230;12.856;2022-08-19T08:11:26;100321.81;;;25.81
15544;BMP180;7873;52.230;12.856;2022-08-19T08:13:53;100326.38;;;25.81
15544;BMP180;7873;52.230;12.856;2022-08-19T08:16:20;100318.91;;;25.83
15544;BMP180;7873;52.230;12.856;2022-08-19T08:18:46;100318.28;;;25.81
15544;BMP180;7873;52.230;12.856;2022-08-19T08:21:13;100328.25;;;25.87
15544;BMP180;7873;52.230;12.856;2022-08-19T08:23:41;100324.69;;;25.80
15544;BMP180;7873;52.230;12.856;2022-08-19T08:26:08;100315.16;;;25.77
15544;BMP180;7873;52.230;12.856;2022-08-19T08:28:34;100319.94;;;25.82
15544;BMP180;7873;52.230;12.856;2022-08-19T08:31:02;100313.69;;;25.75
15544;BMP180;7873;52.230;12.856;2022-08-19T08:33:30;100315.16;;;25.77
15544;BMP180;7873;52.230;12.856;2022-08-19T08:35:58;100322.34;;;25.51
15544;BMP180;7873;52.230;12.856;2022-08-19T08:38:25;100327.06;;;25.36
15544;BMP180;7873;52.230;12.856;2022-08-19T08:40:59;100321.75;;;25.15
15544;BMP180;7873;52.230;12.856;2022-08-19T08:43:32;100322.88;;;25.27
15544;BMP180;7873;52.230;12.856;2022-08-19T08:46:01;100319.63;;;25.45
15544;BMP180;7873;52.230;12.856;2022-08-19T08:48:37;100335.03;;;25.63
15544;BMP180;7873;52.230;12.856;2022-08-19T08:51:10;100338.81;;;25.82
15544;BMP180;7873;52.230;12.856;2022-08-19T08:53:38;100333.88;;;25.98
15544;BMP180;7873;52.230;12.856;2022-08-19T08:56:09;100343.91;;;26.11
15544;BMP180;7873;52.230;12.856;2022-08-19T08:58:47;100353.66;;;26.25
15544;BMP180;7873;52.230;12.856;2022-08-19T09:01:14;100351.78;;;26.32
15544;BMP180;7873;52.230;12.856;2022-08-19T09:03:42;100364.47;;;26.38
15544;BMP180;7873;52.230;12.856;2022-08-19T09:06:20;100368.59;;;26.40
15544;BMP180;7873;52.230;12.856;2022-08-19T09:08:56;100373.81;;;26.42
15544;BMP180;7873;52.230;12.856;2022-08-19T09:11:38;100366.31;;;26.44
15544;BMP180;7873;52.230;12.856;2022-08-19T09:14:13;100363.41;;;26.45
15544;BMP180;7873;52.230;12.856;2022-08-19T09:16:42;100360.50;;;26.47
15544;BMP180;7873;52.230;12.856;2022-08-19T09:19:10;100369.25;;;26.49
15544;BMP180;7873;52.230;12.856;2022-08-19T09:21:37;100359.50;;;26.48
15544;BMP180;7873;52.230;12.856;2022-08-19T09:24:05;100360.97;;;26.50
15544;BMP180;7873;52.230;12.856;2022-08-19T09:26:33;100358.25;;;26.50
15544;BMP180;7873;52.230;12.856;2022-08-19T09:29:00;100356.59;;;26.49
15544;BMP180;7873;52.230;12.856;2022-08-19T09:31:31;100355.56;;;26.50
15544;BMP180;7873;52.230;12.856;2022-08-19T09:33:58;100350.34;;;26.49
15544;BMP180;7873;52.230;12.856;2022-08-19T09:36:27;100353.47;;;26.52
15544;BMP180;7873;52.230;12.856;2022-08-19T09:38:58;100350.78;;;26.52
15544;BMP180;7873;52.230;12.856;2022-08-19T09:41:26;100348.88;;;26.53
15544;BMP180;7873;52.230;12.856;2022-08-19T09:43:55;100352.44;;;26.53
15544;BMP180;7873;52.230;12.856;2022-08-19T09:46:24;100353.88;;;26.56
15544;BMP180;7873;52.230;12.856;2022-08-19T09:48:51;100362.81;;;26.56
15544;BMP180;7873;52.230;12.856;2022-08-19T09:51:20;100360.94;;;26.57
15544;BMP180;7873;52.230;12.856;2022-08-19T09:53:48;100354.72;;;26.56
15544;BMP180;7873;52.230;12.856;2022-08-19T09:56:17;100363.84;;;26.55
15544;BMP180;7873;52.230;12.856;2022-08-19T09:58:44;100358.47;;;26.55
15544;BMP180;7873;52.230;12.856;2022-08-19T10:01:18;100362.63;;;26.58
15544;BMP180;7873;52.230;12.856;2022-08-19T10:03:48;100355.75;;;26.49
15544;BMP180;7873;52.230;12.856;2022-08-19T10:06:17;100356.59;;;26.49
15544;BMP180;7873;52.230;12.856;2022-08-19T10:08:47;100354.94;;;26.48
15544;BMP180;7873;52.230;12.856;2022-08-19T10:11:15;100365.69;;;26.09
15544;BMP180;7873;52.230;12.856;2022-08-19T10:13:43;100364.59;;;25.84
15544;BMP180;7873;52.230;12.856;2022-08-19T10:16:13;100364.69;;;25.57
15544;BMP180;7873;52.230;12.856;2022-08-19T10:18:42;100366.72;;;25.42
15544;BMP180;7873;52.230;12.856;2022-08-19T10:21:12;100365.75;;;25.62
15544;BMP180;7873;52.230;12.856;2022-08-19T10:23:41;100356.94;;;25.88
15544;BMP180;7873;52.230;12.856;2022-08-19T10:26:11;100364.00;;;26.08
15544;BMP180;7873;52.230;12.856;2022-08-19T10:28:39;100362.97;;;26.09
15544;BMP180;7873;52.230;12.856;2022-08-19T10:31:07;100362.56;;;26.19
15544;BMP180;7873;52.230;12.856;2022-08-19T10:33:35;100369.22;;;26.23
15544;BMP180;7873;52.230;12.856;2022-08-19T10:36:06;100357.38;;;26.24
15544;BMP180;7873;52.230;12.856;2022-08-19T10:38:33;100360.50;;;26.21
15544;BMP180;7873;52.230;12.856;2022-08-19T10:41:07;100349.72;;;26.27
15544;BMP180;7873;52.230;12.856;2022-08-19T10:43:34;100350.50;;;26.21
15544;BMP180;7873;52.230;12.856;2022-08-19T10:46:02;100357.59;;;26.16
15544;BMP180;7873;52.230;12.856;2022-08-19T10:48:29;100358.63;;;26.21
15544;BMP180;7873;52.230;12.856;2022-08-19T10:50:57;100364.66;;;26.23
15544;BMP180;7873;52.230;12.856;2022-08-19T10:53:43;100374.19;;;26.26
15544;BMP180;7873;52.230;12.856;2022-08-19T10:56:09;100375.25;;;26.12
15544;BMP180;7873;52.230;12.856;2022-08-19T10:58:53;100378.97;;;26.11
15544;BMP180;7873;52.230;12.856;2022-08-19T11:01:22;100371.69;;;26.11
15544;BMP180;7873;52.230;12.856;2022-08-19T11:03:48;100374.00;;;26.21
15544;BMP180;7873;52.230;12.856;2022-08-19T11:06:15;100378.13;;;26.30
15544;BMP180;7873;52.230;12.856;2022-08-19T11:08:43;100377.53;;;26.28
15544;BMP180;7873;52.230;12.856;2022-08-19T11:11:11;100362.78;;;26.30
15544;BMP180;7873;52.230;12.856;2022-08-19T11:13:40;100361.53;;;26.33
15544;BMP180;7873;52.230;12.856;2022-08-19T11:16:18;100358.63;;;26.28
15544;BMP180;7873;52.230;12.856;2022-08-19T11:18:50;100361.97;;;26.23
15544;BMP180;7873;52.230;12.856;2022-08-19T11:21:22;100345.53;;;26.25
15544;BMP180;7873;52.230;12.856;2022-08-19T11:23:55;100343.88;;;26.24
15544;BMP180;7873;52.230;12.856;2022-08-19T11:26:28;100352.59;;;26.26
15544;BMP180;7873;52.230;12.856;2022-08-19T11:29:00;100347.81;;;26.28
15544;BMP180;7873;52.230;12.856;2022-08-19T11:31:33;100347.22;;;26.32
15544;BMP180;7873;52.230;12.856;2022-08-19T11:34:04;100345.97;;;26.28
15544;BMP180;7873;52.230;12.856;2022-08-19T11:36:37;100348.44;;;26.30
15544;BMP180;7873;52.230;12.856;2022-08-19T11:39:12;100357.59;;;26.29
15544;BMP180;7873;52.230;12.856;2022-08-19T11:41:41;100366.31;;;26.24
15544;BMP180;7873;52.230;12.856;2022-08-19T11:44:10;100364.84;;;26.22
15544;BMP180;7873;52.230;12.856;2022-08-19T11:46:42;100372.53;;;26.25
15544;BMP180;7873;52.230;12.856;2022-08-19T11:49:12;100377.31;;;26.29
15544;BMP180;7873;52.230;12.856;2022-08-19T11:51:41;100378.38;;;26.35
15544;BMP180;7873;52.230;12.856;2022-08-19T11:54:14;100386.69;;;26.40
15544;BMP180;7873;52.230;12.856;2022-08-19T11:56:41;100382.31;;;26.39
15544;BMP180;7873;52.230;12.856;2022-08-19T11:59:08;100390.84;;;26.36
15544;BMP180;7873;52.230;12.856;2022-08-19T12:01:36;100390.41;;;26.39
15544;BMP180;7873;52.230;12.856;2022-08-19T12:04:03;100393.50;;;26.42
15544;BMP180;7873;52.230;12.856;2022-08-19T12:06:31;100392.88;;;26.40
15544;BMP180;7873;52.230;12.856;2022-08-19T12:09:02;100391.66;;;26.43
15544;BMP180;7873;52.230;12.856;2022-08-19T12:11:31;100388.97;;;26.43
15544;BMP180;7873;52.230;12.856;2022-08-19T12:13:58;100395.59;;;26.47
15544;BMP180;7873;52.230;12.856;2022-08-19T12:16:26;100393.78;;;26.47
15544;BMP180;7873;52.230;12.856;2022-08-19T12:18:54;100394.97;;;26.38
15544;BMP180;7873;52.230;12.856;2022-08-19T12:21:23;100396.63;;;26.26
15544;BMP180;7873;52.230;12.856;2022-08-19T12:23:55;100391.84;;;26.22
15544;BMP180;7873;52.230;12.856;2022-08-19T12:26:23;100392.06;;;26.27
15544;BMP180;7873;52.230;12.856;2022-08-19T12:28:52;100386.66;;;26.33
15544;BMP180;7873;52.230;12.856;2022-08-19T12:31:19;100392.28;;;26.38
15544;BMP180;7873;52.230;12.856;2022-08-19T12:33:46;100384.41;;;26.37
15544;BMP180;7873;52.230;12.856;2022-08-19T12:36:14;100380.03;;;26.36
15544;BMP180;7873;52.230;12.856;2022-08-19T12:38:41;100384.78;;;26.40
15544;BMP180;7873;52.230;12.856;2022-08-19T12:41:12;100390.00;;;26.42
15544;BMP180;7873;52.230;12.856;2022-08-19T12:43:39;100393.38;;;26.50
15544;BMP180;7873;52.230;12.856;2022-08-19T12:46:08;100398.97;;;26.55
15544;BMP180;7873;52.230;12.856;2022-08-19T12:48:35;100406.03;;;26.63
15544;BMP180;7873;52.230;12.856;2022-08-19T12:51:06;100411.22;;;26.64
15544;BMP180;7873;52.230;12.856;2022-08-19T12:53:33;100415.38;;;26.67
15544;BMP180;7873;52.230;12.856;2022-08-19T12:55:59;100411.63;;;26.68
15544;BMP180;7873;52.230;12.856;2022-08-19T12:58:27;100421.59;;;26.67
15544;BMP180;7873;52.230;12.856;2022-08-19T13:00:54;100418.28;;;26.65
15544;BMP180;7873;52.230;12.856;2022-08-19T13:03:22;100420.16;;;26.65
15544;BMP180;7873;52.230;12.856;2022-08-19T13:05:55;100413.09;;;26.64
15544;BMP180;7873;52.230;12.856;2022-08-19T13:08:21;100420.16;;;26.71
15544;BMP180;7873;52.230;12.856;2022-08-19T13:10:48;100418.91;;;26.74
15544;BMP180;7873;52.230;12.856;2022-08-19T13:13:15;100418.06;;;26.80
15544;BMP180;7873;52.230;12.856;2022-08-19T13:15:42;100408.09;;;26.80
15544;BMP180;7873;52.230;12.856;2022-08-19T13:18:12;100416.63;;;26.77
15544;BMP180;7873;52.230;12.856;2022-08-19T13:20:41;100409.56;;;26.76
15544;BMP180;7873;52.230;12.856;2022-08-19T13:23:08;100412.03;;;26.78
15544;BMP180;7873;52.230;12.856;2022-08-19T13:25:35;100404.97;;;26.77
15544;BMP180;7873;52.230;12.856;2022-08-19T13:28:02;100408.28;;;26.79
15544;BMP180;7873;52.230;12.856;2022-08-19T13:30:29;100406.63;;;26.78
15544;BMP180;7873;52.230;12.856;2022-08-19T13:33:13;100411.22;;;26.77
15544;BMP180;7873;52.230;12.856;2022-08-19T13:35:45;100416.41;;;26.79
15544;BMP180;7873;52.230;12.856;2022-08-19T13:38:13;100414.34;;;26.81
15544;BMP180;7873;52.230;12.856;2022-08-19T13:40:40;100412.66;;;26.80
15544;BMP180;7873;52.230;12.856;2022-08-19T13:43:08;100405.19;;;26.82
15544;BMP180;7873;52.230;12.856;2022-08-19T13:45:35;100405.41;;;26.80
15544;BMP180;7873;52.230;12.856;2022-08-19T13:48:04;100400.00;;;26.74
15544;BMP180;7873;52.230;12.856;2022-08-19T13:50:34;100395.19;;;26.76
15544;BMP180;7873;52.230;12.856;2022-08-19T13:53:02;100390.66;;;26.83
15544;BMP180;7873;52.230;12.856;2022-08-19T13:55:29;100387.09;;;26.89
15544;BMP180;7873;52.230;12.856;2022-08-19T13:57:59;100392.91;;;26.92
15544;BMP180;7873;52.230;12.856;2022-08-19T14:00:29;100397.28;;;26.93
15544;BMP180;7873;52.230;12.856;2022-08-19T14:02:56;100406.81;;;26.96
15544;BMP180;7873;52.230;12.856;2022-08-19T14:05:25;100400.59;;;26.95
15544;BMP180;7873;52.230;12.856;2022-08-19T14:07:51;100411.41;;;26.95